Terminal Aerodrome Forecast
Issued by NWS

Home | Current Version | Previous Version | Text Only | Print | Product List | Glossary On
Versions: 1 2 3 4 5 6 7 8 9 10 11 12 13 14 15
000
FTUS43 KEAX 021100
TAFMKC
TAF
KMKC 021120Z 0212/0312 VRB04KT P6SM BKN025 OVC040
     FM021400 VRB06KT P6SM SCT025 OVC040
     FM021800 31010KT P6SM VCTS OVC040CB
      TEMPO 0218/0222 4SM -TSRA BR BKN025CB
     FM030000 33008KT P6SM BKN025
     FM030500 32007KT P6SM SCT020=

USA.gov is the U.S. government's official web portal to all federal, state and local government web resources and services.